sensor_id;sensor_type;location;lat;lon;timestamp;P1;durP1;ratioP1;P2;durP2;ratioP2
34405;SDS011;20658;45.630;8.886;2024-03-07T00:01:43;30.08;;;14.00;;
34405;SDS011;20658;45.630;8.886;2024-03-07T00:04:17;24.27;;;14.05;;
34405;SDS011;20658;45.630;8.886;2024-03-07T00:06:45;29.40;;;14.88;;
34405;SDS011;20658;45.630;8.886;2024-03-07T00:09:19;24.77;;;13.95;;
34405;SDS011;20658;45.630;8.886;2024-03-07T00:11:57;30.25;;;15.13;;
34405;SDS011;20658;45.630;8.886;2024-03-07T00:14:30;25.95;;;13.30;;
34405;SDS011;20658;45.630;8.886;2024-03-07T00:17:06;25.92;;;12.93;;
34405;SDS011;20658;45.630;8.886;2024-03-07T00:19:40;30.42;;;13.52;;
34405;SDS011;20658;45.630;8.886;2024-03-07T00:22:13;25.23;;;13.68;;
34405;SDS011;20658;45.630;8.886;2024-03-07T00:24:47;27.42;;;13.27;;
34405;SDS011;20658;45.630;8.886;2024-03-07T00:27:22;25.88;;;14.05;;
34405;SDS011;20658;45.630;8.886;2024-03-07T00:29:55;23.23;;;12.38;;
34405;SDS011;20658;45.630;8.886;2024-03-07T00:32:29;26.13;;;12.98;;
34405;SDS011;20658;45.630;8.886;2024-03-07T00:35:07;24.40;;;12.73;;
34405;SDS011;20658;45.630;8.886;2024-03-07T00:37:41;23.38;;;12.32;;
34405;SDS011;20658;45.630;8.886;2024-03-07T00:40:14;23.38;;;12.48;;
34405;SDS011;20658;45.630;8.886;2024-03-07T00:42:49;22.67;;;11.90;;
34405;SDS011;20658;45.630;8.886;2024-03-07T00:45:24;21.75;;;11.50;;
34405;SDS011;20658;45.630;8.886;2024-03-07T00:47:57;28.77;;;15.52;;
34405;SDS011;20658;45.630;8.886;2024-03-07T00:50:26;24.40;;;12.73;;
34405;SDS011;20658;45.630;8.886;2024-03-07T00:53:00;23.45;;;13.05;;
34405;SDS011;20658;45.630;8.886;2024-03-07T00:55:33;26.45;;;13.90;;
34405;SDS011;20658;45.630;8.886;2024-03-07T00:58:08;27.67;;;13.73;;
34405;SDS011;20658;45.630;8.886;2024-03-07T01:00:41;28.60;;;14.75;;
34405;SDS011;20658;45.630;8.886;2024-03-07T01:03:15;25.42;;;12.75;;
34405;SDS011;20658;45.630;8.886;2024-03-07T01:05:49;26.73;;;15.27;;
34405;SDS011;20658;45.630;8.886;2024-03-07T01:08:23;24.40;;;12.70;;
34405;SDS011;20658;45.630;8.886;2024-03-07T01:10:56;24.90;;;12.40;;
34405;SDS011;20658;45.630;8.886;2024-03-07T01:13:31;23.45;;;12.68;;
34405;SDS011;20658;45.630;8.886;2024-03-07T01:16:05;28.20;;;13.88;;
34405;SDS011;20658;45.630;8.886;2024-03-07T01:18:39;28.27;;;14.27;;
34405;SDS011;20658;45.630;8.886;2024-03-07T01:21:12;26.08;;;13.85;;
34405;SDS011;20658;45.630;8.886;2024-03-07T01:23:46;28.85;;;16.15;;
34405;SDS011;20658;45.630;8.886;2024-03-07T01:26:20;31.25;;;15.27;;
34405;SDS011;20658;45.630;8.886;2024-03-07T01:28:50;29.42;;;15.05;;
34405;SDS011;20658;45.630;8.886;2024-03-07T01:31:23;26.25;;;12.88;;
34405;SDS011;20658;45.630;8.886;2024-03-07T01:33:57;26.73;;;12.98;;
34405;SDS011;20658;45.630;8.886;2024-03-07T01:36:25;24.13;;;14.00;;
34405;SDS011;20658;45.630;8.886;2024-03-07T01:38:54;29.45;;;14.68;;
34405;SDS011;20658;45.630;8.886;2024-03-07T01:41:22;28.30;;;14.13;;
34405;SDS011;20658;45.630;8.886;2024-03-07T01:43:52;27.10;;;13.15;;
34405;SDS011;20658;45.630;8.886;2024-03-07T01:46:21;23.23;;;12.88;;
34405;SDS011;20658;45.630;8.886;2024-03-07T01:48:54;23.88;;;12.60;;
34405;SDS011;20658;45.630;8.886;2024-03-07T01:51:24;23.67;;;12.98;;
34405;SDS011;20658;45.630;8.886;2024-03-07T01:53:58;23.50;;;11.82;;
34405;SDS011;20658;45.630;8.886;2024-03-07T01:56:32;26.98;;;12.18;;
34405;SDS011;20658;45.630;8.886;2024-03-07T01:59:08;21.73;;;11.82;;
34405;SDS011;20658;45.630;8.886;2024-03-07T02:01:43;25.35;;;12.30;;
34405;SDS011;20658;45.630;8.886;2024-03-07T02:04:18;22.77;;;12.18;;
34405;SDS011;20658;45.630;8.886;2024-03-07T02:06:51;25.55;;;12.07;;
34405;SDS011;20658;45.630;8.886;2024-03-07T02:09:26;23.85;;;12.07;;
34405;SDS011;20658;45.630;8.886;2024-03-07T02:11:55;26.75;;;12.90;;
34405;SDS011;20658;45.630;8.886;2024-03-07T02:14:30;23.27;;;12.48;;
34405;SDS011;20658;45.630;8.886;2024-03-07T02:16:58;24.52;;;13.05;;
34405;SDS011;20658;45.630;8.886;2024-03-07T02:19:32;23.67;;;11.68;;
34405;SDS011;20658;45.630;8.886;2024-03-07T02:22:07;20.80;;;11.40;;
34405;SDS011;20658;45.630;8.886;2024-03-07T02:24:40;23.05;;;12.10;;
34405;SDS011;20658;45.630;8.886;2024-03-07T02:27:14;21.60;;;11.73;;
34405;SDS011;20658;45.630;8.886;2024-03-07T02:29:47;23.63;;;12.13;;
34405;SDS011;20658;45.630;8.886;2024-03-07T02:32:17;22.10;;;11.60;;
34405;SDS011;20658;45.630;8.886;2024-03-07T02:34:46;23.52;;;11.55;;
34405;SDS011;20658;45.630;8.886;2024-03-07T02:37:21;20.70;;;11.32;;
34405;SDS011;20658;45.630;8.886;2024-03-07T02:39:55;21.75;;;11.98;;
34405;SDS011;20658;45.630;8.886;2024-03-07T02:42:23;21.20;;;11.52;;
34405;SDS011;20658;45.630;8.886;2024-03-07T02:44:57;23.05;;;11.23;;
34405;SDS011;20658;45.630;8.886;2024-03-07T02:47:26;23.75;;;12.27;;
34405;SDS011;20658;45.630;8.886;2024-03-07T02:50:00;22.85;;;11.35;;
34405;SDS011;20658;45.630;8.886;2024-03-07T02:52:35;23.05;;;11.68;;
34405;SDS011;20658;45.630;8.886;2024-03-07T02:55:08;21.08;;;11.05;;
34405;SDS011;20658;45.630;8.886;2024-03-07T02:57:37;20.75;;;10.57;;
34405;SDS011;20658;45.630;8.886;2024-03-07T03:00:12;19.77;;;10.93;;
34405;SDS011;20658;45.630;8.886;2024-03-07T03:02:57;19.55;;;10.00;;
34405;SDS011;20658;45.630;8.886;2024-03-07T03:05:31;21.55;;;10.23;;
34405;SDS011;20658;45.630;8.886;2024-03-07T03:08:07;21.27;;;9.38;;
34405;SDS011;20658;45.630;8.886;2024-03-07T03:10:36;18.25;;;9.73;;
34405;SDS011;20658;45.630;8.886;2024-03-07T03:13:05;15.85;;;9.15;;
34405;SDS011;20658;45.630;8.886;2024-03-07T03:15:39;19.70;;;9.52;;
34405;SDS011;20658;45.630;8.886;2024-03-07T03:18:13;24.92;;;11.80;;
34405;SDS011;20658;45.630;8.886;2024-03-07T03:20:47;19.52;;;10.15;;
34405;SDS011;20658;45.630;8.886;2024-03-07T03:23:22;18.52;;;9.95;;
34405;SDS011;20658;45.630;8.886;2024-03-07T03:25:55;18.60;;;9.23;;
34405;SDS011;20658;45.630;8.886;2024-03-07T03:28:29;20.33;;;9.70;;
34405;SDS011;20658;45.630;8.886;2024-03-07T03:31:03;17.70;;;9.40;;
34405;SDS011;20658;45.630;8.886;2024-03-07T03:33:36;18.45;;;8.65;;
34405;SDS011;20658;45.630;8.886;2024-03-07T03:36:10;13.88;;;8.18;;
34405;SDS011;20658;45.630;8.886;2024-03-07T03:38:44;20.42;;;8.82;;
34405;SDS011;20658;45.630;8.886;2024-03-07T03:41:14;20.10;;;8.70;;
34405;SDS011;20658;45.630;8.886;2024-03-07T03:43:48;15.35;;;7.95;;
34405;SDS011;20658;45.630;8.886;2024-03-07T03:46:16;17.02;;;9.15;;
34405;SDS011;20658;45.630;8.886;2024-03-07T03:48:45;16.77;;;8.38;;
34405;SDS011;20658;45.630;8.886;2024-03-07T03:51:13;20.30;;;8.07;;
34405;SDS011;20658;45.630;8.886;2024-03-07T03:53:48;16.08;;;7.65;;
34405;SDS011;20658;45.630;8.886;2024-03-07T03:56:23;16.90;;;7.80;;
34405;SDS011;20658;45.630;8.886;2024-03-07T03:58:57;14.82;;;6.88;;
34405;SDS011;20658;45.630;8.886;2024-03-07T04:01:31;14.93;;;6.93;;
34405;SDS011;20658;45.630;8.886;2024-03-07T04:04:04;15.82;;;6.50;;
34405;SDS011;20658;45.630;8.886;2024-03-07T04:06:38;14.73;;;6.45;;
34405;SDS011;20658;45.630;8.886;2024-03-07T04:09:14;12.55;;;6.53;;
34405;SDS011;20658;45.630;8.886;2024-03-07T04:11:47;11.65;;;6.20;;
34405;SDS011;20658;45.630;8.886;2024-03-07T04:14:21;14.05;;;5.78;;
34405;SDS011;20658;45.630;8.886;2024-03-07T04:16:54;11.60;;;5.35;;
34405;SDS011;20658;45.630;8.886;2024-03-07T04:19:28;11.70;;;5.25;;
34405;SDS011;20658;45.630;8.886;2024-03-07T04:21:57;10.68;;;5.22;;
34405;SDS011;20658;45.630;8.886;2024-03-07T04:24:27;13.77;;;5.78;;
34405;SDS011;20658;45.630;8.886;2024-03-07T04:26:56;9.85;;;4.65;;
34405;SDS011;20658;45.630;8.886;2024-03-07T04:29:25;11.52;;;5.05;;
34405;SDS011;20658;45.630;8.886;2024-03-07T04:31:58;16.58;;;5.63;;
34405;SDS011;20658;45.630;8.886;2024-03-07T04:34:33;11.52;;;5.00;;
34405;SDS011;20658;45.630;8.886;2024-03-07T04:37:08;11.20;;;5.00;;
34405;SDS011;20658;45.630;8.886;2024-03-07T04:39:43;15.15;;;6.03;;
34405;SDS011;20658;45.630;8.886;2024-03-07T04:42:17;8.50;;;5.05;;
34405;SDS011;20658;45.630;8.886;2024-03-07T04:44:45;12.70;;;5.72;;
34405;SDS011;20658;45.630;8.886;2024-03-07T04:47:19;16.27;;;6.05;;
34405;SDS011;20658;45.630;8.886;2024-03-07T04:49:52;18.27;;;5.10;;
34405;SDS011;20658;45.630;8.886;2024-03-07T04:52:26;13.65;;;5.30;;
34405;SDS011;20658;45.630;8.886;2024-03-07T04:55:01;11.70;;;5.15;;
34405;SDS011;20658;45.630;8.886;2024-03-07T04:57:30;10.77;;;5.07;;
34405;SDS011;20658;45.630;8.886;2024-03-07T04:59:58;12.52;;;5.60;;
34405;SDS011;20658;45.630;8.886;2024-03-07T05:02:32;11.80;;;5.22;;
34405;SDS011;20658;45.630;8.886;2024-03-07T05:05:05;11.35;;;5.95;;
34405;SDS011;20658;45.630;8.886;2024-03-07T05:07:39;10.23;;;6.03;;
34405;SDS011;20658;45.630;8.886;2024-03-07T05:10:14;10.18;;;4.80;;
34405;SDS011;20658;45.630;8.886;2024-03-07T05:12:48;11.05;;;4.80;;
34405;SDS011;20658;45.630;8.886;2024-03-07T05:15:21;11.13;;;4.68;;
34405;SDS011;20658;45.630;8.886;2024-03-07T05:17:57;9.75;;;5.13;;
34405;SDS011;20658;45.630;8.886;2024-03-07T05:20:30;14.50;;;5.43;;
34405;SDS011;20658;45.630;8.886;2024-03-07T05:23:04;12.32;;;5.75;;
34405;SDS011;20658;45.630;8.886;2024-03-07T05:25:34;18.15;;;7.22;;
34405;SDS011;20658;45.630;8.886;2024-03-07T05:28:03;15.07;;;7.38;;
34405;SDS011;20658;45.630;8.886;2024-03-07T05:30:32;18.40;;;8.00;;
34405;SDS011;20658;45.630;8.886;2024-03-07T05:33:06;14.73;;;6.75;;
34405;SDS011;20658;45.630;8.886;2024-03-07T05:35:39;14.68;;;5.57;;
34405;SDS011;20658;45.630;8.886;2024-03-07T05:38:10;12.55;;;6.03;;
34405;SDS011;20658;45.630;8.886;2024-03-07T05:40:40;16.83;;;7.28;;
34405;SDS011;20658;45.630;8.886;2024-03-07T05:43:09;15.43;;;7.50;;
34405;SDS011;20658;45.630;8.886;2024-03-07T05:45:39;20.42;;;9.27;;
34405;SDS011;20658;45.630;8.886;2024-03-07T05:48:14;14.80;;;5.60;;
34405;SDS011;20658;45.630;8.886;2024-03-07T05:50:48;11.95;;;5.35;;
34405;SDS011;20658;45.630;8.886;2024-03-07T05:53:22;9.13;;;4.55;;
34405;SDS011;20658;45.630;8.886;2024-03-07T05:55:56;11.15;;;4.93;;
34405;SDS011;20658;45.630;8.886;2024-03-07T05:58:30;11.35;;;5.03;;
34405;SDS011;20658;45.630;8.886;2024-03-07T06:00:59;12.07;;;4.47;;
34405;SDS011;20658;45.630;8.886;2024-03-07T06:03:27;9.40;;;4.82;;
34405;SDS011;20658;45.630;8.886;2024-03-07T06:05:56;15.88;;;5.68;;
34405;SDS011;20658;45.630;8.886;2024-03-07T06:08:29;9.10;;;4.20;;
34405;SDS011;20658;45.630;8.886;2024-03-07T06:11:04;10.75;;;4.85;;
34405;SDS011;20658;45.630;8.886;2024-03-07T06:13:38;11.50;;;5.22;;
34405;SDS011;20658;45.630;8.886;2024-03-07T06:16:11;11.27;;;5.18;;
34405;SDS011;20658;45.630;8.886;2024-03-07T06:18:40;11.50;;;5.30;;
34405;SDS011;20658;45.630;8.886;2024-03-07T06:21:14;15.00;;;4.22;;
34405;SDS011;20658;45.630;8.886;2024-03-07T06:23:42;7.97;;;3.90;;
34405;SDS011;20658;45.630;8.886;2024-03-07T06:26:17;8.60;;;4.07;;
34405;SDS011;20658;45.630;8.886;2024-03-07T06:29:03;12.52;;;4.28;;
34405;SDS011;20658;45.630;8.886;2024-03-07T06:31:32;20.25;;;8.77;;
34405;SDS011;20658;45.630;8.886;2024-03-07T06:34:07;38.00;;;19.52;;
34405;SDS011;20658;45.630;8.886;2024-03-07T06:36:40;17.13;;;7.57;;
34405;SDS011;20658;45.630;8.886;2024-03-07T06:39:14;11.45;;;6.00;;
34405;SDS011;20658;45.630;8.886;2024-03-07T06:41:49;10.75;;;4.32;;
34405;SDS011;20658;45.630;8.886;2024-03-07T06:44:18;12.07;;;7.03;;
34405;SDS011;20658;45.630;8.886;2024-03-07T06:46:49;12.77;;;6.15;;
34405;SDS011;20658;45.630;8.886;2024-03-07T06:49:18;17.48;;;7.60;;
34405;SDS011;20658;45.630;8.886;2024-03-07T06:51:47;15.63;;;6.55;;
34405;SDS011;20658;45.630;8.886;2024-03-07T06:54:16;10.90;;;5.03;;
34405;SDS011;20658;45.630;8.886;2024-03-07T06:56:51;16.48;;;8.75;;
34405;SDS011;20658;45.630;8.886;2024-03-07T06:59:19;35.67;;;23.88;;
34405;SDS011;20658;45.630;8.886;2024-03-07T07:01:53;15.95;;;6.90;;
34405;SDS011;20658;45.630;8.886;2024-03-07T07:04:28;15.05;;;5.82;;
34405;SDS011;20658;45.630;8.886;2024-03-07T07:07:12;14.82;;;5.20;;
34405;SDS011;20658;45.630;8.886;2024-03-07T07:09:41;18.88;;;4.65;;
34405;SDS011;20658;45.630;8.886;2024-03-07T07:12:16;19.52;;;11.27;;
34405;SDS011;20658;45.630;8.886;2024-03-07T07:14:50;23.30;;;9.65;;
34405;SDS011;20658;45.630;8.886;2024-03-07T07:17:24;14.00;;;4.40;;
34405;SDS011;20658;45.630;8.886;2024-03-07T07:20:00;9.10;;;3.78;;
34405;SDS011;20658;45.630;8.886;2024-03-07T07:22:41;8.68;;;3.70;;
34405;SDS011;20658;45.630;8.886;2024-03-07T07:25:16;14.30;;;6.45;;
34405;SDS011;20658;45.630;8.886;2024-03-07T07:27:54;11.05;;;4.63;;
34405;SDS011;20658;45.630;8.886;2024-03-07T07:30:23;9.70;;;4.03;;
34405;SDS011;20658;45.630;8.886;2024-03-07T07:32:53;9.40;;;3.67;;
34405;SDS011;20658;45.630;8.886;2024-03-07T07:35:26;8.63;;;3.08;;
34405;SDS011;20658;45.630;8.886;2024-03-07T07:38:00;11.07;;;4.88;;
34405;SDS011;20658;45.630;8.886;2024-03-07T07:40:28;12.27;;;5.78;;
34405;SDS011;20658;45.630;8.886;2024-03-07T07:43:05;20.73;;;12.15;;
34405;SDS011;20658;45.630;8.886;2024-03-07T07:45:39;12.68;;;4.78;;
34405;SDS011;20658;45.630;8.886;2024-03-07T07:48:13;11.10;;;5.28;;
34405;SDS011;20658;45.630;8.886;2024-03-07T07:50:48;9.85;;;4.25;;
34405;SDS011;20658;45.630;8.886;2024-03-07T07:53:22;8.05;;;2.95;;
34405;SDS011;20658;45.630;8.886;2024-03-07T07:55:56;8.65;;;3.22;;
34405;SDS011;20658;45.630;8.886;2024-03-07T07:58:31;13.80;;;4.90;;
34405;SDS011;20658;45.630;8.886;2024-03-07T08:01:04;9.70;;;3.58;;
34405;SDS011;20658;45.630;8.886;2024-03-07T08:03:39;6.35;;;3.05;;
34405;SDS011;20658;45.630;8.886;2024-03-07T08:06:13;5.97;;;2.90;;
34405;SDS011;20658;45.630;8.886;2024-03-07T08:08:46;6.63;;;2.92;;
34405;SDS011;20658;45.630;8.886;2024-03-07T08:11:21;8.88;;;3.90;;
34405;SDS011;20658;45.630;8.886;2024-03-07T08:13:52;15.10;;;5.85;;
34405;SDS011;20658;45.630;8.886;2024-03-07T08:16:25;3.63;;;2.33;;
34405;SDS011;20658;45.630;8.886;2024-03-07T08:18:59;10.13;;;3.33;;
34405;SDS011;20658;45.630;8.886;2024-03-07T08:21:34;7.65;;;3.17;;
34405;SDS011;20658;45.630;8.886;2024-03-07T08:24:08;5.60;;;2.30;;
34405;SDS011;20658;45.630;8.886;2024-03-07T08:26:43;6.97;;;2.50;;
34405;SDS011;20658;45.630;8.886;2024-03-07T08:29:19;11.50;;;3.25;;
34405;SDS011;20658;45.630;8.886;2024-03-07T08:31:53;7.07;;;2.25;;
34405;SDS011;20658;45.630;8.886;2024-03-07T08:34:26;4.53;;;2.17;;
34405;SDS011;20658;45.630;8.886;2024-03-07T08:37:00;8.68;;;2.70;;
34405;SDS011;20658;45.630;8.886;2024-03-07T08:39:35;9.32;;;4.10;;
34405;SDS011;20658;45.630;8.886;2024-03-07T08:42:08;8.93;;;3.38;;
34405;SDS011;20658;45.630;8.886;2024-03-07T08:44:43;10.18;;;3.13;;
34405;SDS011;20658;45.630;8.886;2024-03-07T08:47:17;7.70;;;2.72;;
34405;SDS011;20658;45.630;8.886;2024-03-07T08:49:50;5.78;;;2.88;;
34405;SDS011;20658;45.630;8.886;2024-03-07T08:52:24;6.93;;;3.65;;
34405;SDS011;20658;45.630;8.886;2024-03-07T08:54:57;7.60;;;3.08;;
34405;SDS011;20658;45.630;8.886;2024-03-07T08:57:31;9.20;;;3.47;;
34405;SDS011;20658;45.630;8.886;2024-03-07T09:00:07;11.07;;;3.40;;
34405;SDS011;20658;45.630;8.886;2024-03-07T09:02:42;8.90;;;3.78;;
34405;SDS011;20658;45.630;8.886;2024-03-07T09:05:15;7.30;;;2.97;;
34405;SDS011;20658;45.630;8.886;2024-03-07T09:07:49;9.77;;;3.55;;
34405;SDS011;20658;45.630;8.886;2024-03-07T09:10:23;9.60;;;3.83;;
34405;SDS011;20658;45.630;8.886;2024-03-07T09:12:57;12.23;;;3.65;;
34405;SDS011;20658;45.630;8.886;2024-03-07T09:15:32;10.63;;;3.22;;
34405;SDS011;20658;45.630;8.886;2024-03-07T09:18:07;6.25;;;2.90;;
34405;SDS011;20658;45.630;8.886;2024-03-07T09:20:40;6.13;;;2.80;;
34405;SDS011;20658;45.630;8.886;2024-03-07T09:23:14;11.80;;;3.90;;
34405;SDS011;20658;45.630;8.886;2024-03-07T09:25:42;8.57;;;3.47;;
34405;SDS011;20658;45.630;8.886;2024-03-07T09:28:17;6.88;;;3.10;;
34405;SDS011;20658;45.630;8.886;2024-03-07T09:30:52;9.80;;;3.78;;
34405;SDS011;20658;45.630;8.886;2024-03-07T09:33:26;7.20;;;3.30;;
34405;SDS011;20658;45.630;8.886;2024-03-07T09:35:55;9.32;;;3.28;;
34405;SDS011;20658;45.630;8.886;2024-03-07T09:38:29;7.22;;;3.50;;
34405;SDS011;20658;45.630;8.886;2024-03-07T09:41:03;5.75;;;2.55;;
34405;SDS011;20658;45.630;8.886;2024-03-07T09:43:37;6.60;;;2.50;;
34405;SDS011;20658;45.630;8.886;2024-03-07T09:46:12;6.95;;;2.75;;
34405;SDS011;20658;45.630;8.886;2024-03-07T09:48:46;6.40;;;2.50;;
34405;SDS011;20658;45.630;8.886;2024-03-07T09:51:22;4.20;;;1.95;;
34405;SDS011;20658;45.630;8.886;2024-03-07T09:53:52;7.05;;;1.98;;
34405;SDS011;20658;45.630;8.886;2024-03-07T09:56:25;7.03;;;2.35;;
34405;SDS011;20658;45.630;8.886;2024-03-07T09:59:01;8.52;;;2.35;;
34405;SDS011;20658;45.630;8.886;2024-03-07T10:01:38;4.85;;;1.73;;
34405;SDS011;20658;45.630;8.886;2024-03-07T10:04:18;4.82;;;1.92;;
34405;SDS011;20658;45.630;8.886;2024-03-07T10:07:02;3.65;;;1.90;;
34405;SDS011;20658;45.630;8.886;2024-03-07T10:09:42;6.97;;;2.33;;
34405;SDS011;20658;45.630;8.886;2024-03-07T10:12:12;4.35;;;2.15;;
34405;SDS011;20658;45.630;8.886;2024-03-07T10:14:47;9.93;;;2.40;;
34405;SDS011;20658;45.630;8.886;2024-03-07T10:17:24;4.22;;;2.22;;
34405;SDS011;20658;45.630;8.886;2024-03-07T10:19:53;2.90;;;1.85;;
34405;SDS011;20658;45.630;8.886;2024-03-07T10:22:28;4.28;;;1.90;;
34405;SDS011;20658;45.630;8.886;2024-03-07T10:25:01;7.35;;;2.28;;
34405;SDS011;20658;45.630;8.886;2024-03-07T10:27:37;4.88;;;2.15;;
34405;SDS011;20658;45.630;8.886;2024-03-07T10:30:11;5.15;;;2.13;;
34405;SDS011;20658;45.630;8.886;2024-03-07T10:32:54;4.38;;;2.10;;
34405;SDS011;20658;45.630;8.886;2024-03-07T10:35:29;7.05;;;2.63;;
34405;SDS011;20658;45.630;8.886;2024-03-07T10:38:03;3.70;;;2.25;;
34405;SDS011;20658;45.630;8.886;2024-03-07T10:40:39;7.22;;;2.60;;
34405;SDS011;20658;45.630;8.886;2024-03-07T10:43:14;7.45;;;2.70;;
34405;SDS011;20658;45.630;8.886;2024-03-07T10:45:50;8.50;;;3.60;;
34405;SDS011;20658;45.630;8.886;2024-03-07T10:48:27;13.23;;;4.68;;
34405;SDS011;20658;45.630;8.886;2024-03-07T10:51:06;11.98;;;5.90;;
34405;SDS011;20658;45.630;8.886;2024-03-07T10:53:45;12.10;;;6.35;;
34405;SDS011;20658;45.630;8.886;2024-03-07T10:56:33;11.43;;;5.90;;
34405;SDS011;20658;45.630;8.886;2024-03-07T10:59:25;12.30;;;6.18;;
34405;SDS011;20658;45.630;8.886;2024-03-07T11:01:57;13.55;;;6.60;;
34405;SDS011;20658;45.630;8.886;2024-03-07T11:04:39;15.57;;;7.15;;
34405;SDS011;20658;45.630;8.886;2024-03-07T11:07:13;14.38;;;7.82;;
34405;SDS011;20658;45.630;8.886;2024-03-07T11:09:48;14.02;;;7.90;;
34405;SDS011;20658;45.630;8.886;2024-03-07T11:12:23;12.57;;;7.07;;
34405;SDS011;20658;45.630;8.886;2024-03-07T11:14:59;15.73;;;8.00;;
34405;SDS011;20658;45.630;8.886;2024-03-07T11:17:33;15.85;;;7.18;;
34405;SDS011;20658;45.630;8.886;2024-03-07T11:20:22;12.20;;;6.55;;
34405;SDS011;20658;45.630;8.886;2024-03-07T11:22:56;14.95;;;7.13;;
34405;SDS011;20658;45.630;8.886;2024-03-07T11:25:30;16.25;;;7.43;;
34405;SDS011;20658;45.630;8.886;2024-03-07T11:28:04;13.63;;;7.30;;
34405;SDS011;20658;45.630;8.886;2024-03-07T11:30:38;12.88;;;6.60;;
34405;SDS011;20658;45.630;8.886;2024-03-07T11:33:12;17.35;;;7.43;;
34405;SDS011;20658;45.630;8.886;2024-03-07T11:35:50;15.85;;;6.82;;
34405;SDS011;20658;45.630;8.886;2024-03-07T11:38:30;13.20;;;6.10;;
34405;SDS011;20658;45.630;8.886;2024-03-07T11:41:05;14.40;;;7.07;;
34405;SDS011;20658;45.630;8.886;2024-03-07T11:43:39;18.02;;;6.90;;
34405;SDS011;20658;45.630;8.886;2024-03-07T11:46:11;14.20;;;7.30;;
34405;SDS011;20658;45.630;8.886;2024-03-07T11:48:48;13.10;;;6.05;;
34405;SDS011;20658;45.630;8.886;2024-03-07T11:51:18;11.95;;;5.85;;
34405;SDS011;20658;45.630;8.886;2024-03-07T11:53:56;10.57;;;5.05;;
34405;SDS011;20658;45.630;8.886;2024-03-07T11:56:30;9.48;;;5.03;;
34405;SDS011;20658;45.630;8.886;2024-03-07T11:59:03;13.38;;;5.35;;
34405;SDS011;20658;45.630;8.886;2024-03-07T12:01:39;9.60;;;4.90;;
34405;SDS011;20658;45.630;8.886;2024-03-07T12:04:09;11.30;;;5.45;;
34405;SDS011;20658;45.630;8.886;2024-03-07T12:06:51;10.88;;;5.35;;
34405;SDS011;20658;45.630;8.886;2024-03-07T12:09:25;9.85;;;5.05;;
34405;SDS011;20658;45.630;8.886;2024-03-07T12:11:53;10.18;;;4.30;;
34405;SDS011;20658;45.630;8.886;2024-03-07T12:14:30;9.00;;;4.18;;
34405;SDS011;20658;45.630;8.886;2024-03-07T12:17:01;11.30;;;4.00;;
34405;SDS011;20658;45.630;8.886;2024-03-07T12:19:35;10.75;;;4.28;;
34405;SDS011;20658;45.630;8.886;2024-03-07T12:22:09;4.72;;;3.00;;
34405;SDS011;20658;45.630;8.886;2024-03-07T12:24:39;8.40;;;3.22;;
34405;SDS011;20658;45.630;8.886;2024-03-07T12:27:09;9.88;;;3.97;;
34405;SDS011;20658;45.630;8.886;2024-03-07T12:29:39;7.60;;;4.28;;
34405;SDS011;20658;45.630;8.886;2024-03-07T12:32:13;9.60;;;3.40;;
34405;SDS011;20658;45.630;8.886;2024-03-07T12:34:47;7.43;;;3.60;;
34405;SDS011;20658;45.630;8.886;2024-03-07T12:37:22;8.63;;;3.08;;
34405;SDS011;20658;45.630;8.886;2024-03-07T12:39:53;11.25;;;3.05;;
34405;SDS011;20658;45.630;8.886;2024-03-07T12:42:27;7.55;;;3.50;;
34405;SDS011;20658;45.630;8.886;2024-03-07T12:45:05;11.68;;;4.50;;
34405;SDS011;20658;45.630;8.886;2024-03-07T12:47:40;7.97;;;3.75;;
34405;SDS011;20658;45.630;8.886;2024-03-07T12:50:13;7.50;;;4.10;;
34405;SDS011;20658;45.630;8.886;2024-03-07T12:52:48;16.23;;;5.28;;
34405;SDS011;20658;45.630;8.886;2024-03-07T12:55:18;12.13;;;4.88;;
34405;SDS011;20658;45.630;8.886;2024-03-07T12:57:52;8.65;;;3.97;;
34405;SDS011;20658;45.630;8.886;2024-03-07T13:00:21;11.77;;;4.53;;
34405;SDS011;20658;45.630;8.886;2024-03-07T13:02:55;10.55;;;3.95;;
34405;SDS011;20658;45.630;8.886;2024-03-07T13:05:29;11.00;;;4.90;;
34405;SDS011;20658;45.630;8.886;2024-03-07T13:08:04;10.15;;;5.60;;
34405;SDS011;20658;45.630;8.886;2024-03-07T13:10:35;11.50;;;5.32;;
34405;SDS011;20658;45.630;8.886;2024-03-07T13:13:09;11.77;;;5.88;;
34405;SDS011;20658;45.630;8.886;2024-03-07T13:15:43;10.05;;;4.93;;
34405;SDS011;20658;45.630;8.886;2024-03-07T13:18:18;9.98;;;5.03;;
34405;SDS011;20658;45.630;8.886;2024-03-07T13:20:47;10.05;;;4.82;;
34405;SDS011;20658;45.630;8.886;2024-03-07T13:23:17;12.02;;;4.68;;
34405;SDS011;20658;45.630;8.886;2024-03-07T13:25:51;8.13;;;4.72;;
34405;SDS011;20658;45.630;8.886;2024-03-07T13:28:20;8.00;;;4.00;;
34405;SDS011;20658;45.630;8.886;2024-03-07T13:30:55;6.60;;;3.10;;
34405;SDS011;20658;45.630;8.886;2024-03-07T13:33:29;9.10;;;4.85;;
34405;SDS011;20658;45.630;8.886;2024-03-07T13:36:04;9.57;;;5.25;;
34405;SDS011;20658;45.630;8.886;2024-03-07T13:38:40;10.82;;;5.25;;
34405;SDS011;20658;45.630;8.886;2024-03-07T13:41:13;7.95;;;4.65;;
34405;SDS011;20658;45.630;8.886;2024-03-07T13:43:42;9.98;;;5.13;;
34405;SDS011;20658;45.630;8.886;2024-03-07T13:46:10;15.80;;;5.70;;
34405;SDS011;20658;45.630;8.886;2024-03-07T13:48:44;9.02;;;5.47;;
34405;SDS011;20658;45.630;8.886;2024-03-07T13:51:19;10.80;;;6.30;;
34405;SDS011;20658;45.630;8.886;2024-03-07T13:53:56;12.77;;;6.13;;
34405;SDS011;20658;45.630;8.886;2024-03-07T13:56:45;10.52;;;6.28;;
34405;SDS011;20658;45.630;8.886;2024-03-07T13:59:35;10.63;;;5.38;;
34405;SDS011;20658;45.630;8.886;2024-03-07T14:05:53;12.07;;;7.07;;
34405;SDS011;20658;45.630;8.886;2024-03-07T14:08:52;10.38;;;6.63;;
34405;SDS011;20658;45.630;8.886;2024-03-07T14:12:15;15.07;;;5.82;;
34405;SDS011;20658;45.630;8.886;2024-03-07T14:22:14;15.55;;;8.52;;
34405;SDS011;20658;45.630;8.886;2024-03-07T14:25:10;12.70;;;6.72;;
34405;SDS011;20658;45.630;8.886;2024-03-07T14:28:31;14.65;;;7.53;;
34405;SDS011;20658;45.630;8.886;2024-03-07T14:31:23;13.18;;;7.43;;
34405;SDS011;20658;45.630;8.886;2024-03-07T14:34:02;14.70;;;6.72;;
34405;SDS011;20658;45.630;8.886;2024-03-07T14:36:44;12.15;;;6.95;;
34405;SDS011;20658;45.630;8.886;2024-03-07T14:39:21;14.52;;;8.38;;
34405;SDS011;20658;45.630;8.886;2024-03-07T14:41:52;14.00;;;8.07;;
34405;SDS011;20658;45.630;8.886;2024-03-07T14:44:32;14.57;;;7.82;;
34405;SDS011;20658;45.630;8.886;2024-03-07T14:47:06;12.13;;;7.75;;
34405;SDS011;20658;45.630;8.886;2024-03-07T14:49:42;13.93;;;8.05;;
34405;SDS011;20658;45.630;8.886;2024-03-07T14:52:15;14.07;;;8.10;;
34405;SDS011;20658;45.630;8.886;2024-03-07T14:54:49;14.20;;;8.32;;
34405;SDS011;20658;45.630;8.886;2024-03-07T14:57:22;13.80;;;7.88;;
34405;SDS011;20658;45.630;8.886;2024-03-07T14:59:53;13.05;;;7.15;;
34405;SDS011;20658;45.630;8.886;2024-03-07T15:02:26;12.65;;;7.10;;
34405;SDS011;20658;45.630;8.886;2024-03-07T15:04:59;15.93;;;7.88;;
34405;SDS011;20658;45.630;8.886;2024-03-07T15:07:36;11.43;;;6.63;;
34405;SDS011;20658;45.630;8.886;2024-03-07T15:10:14;12.02;;;6.30;;
34405;SDS011;20658;45.630;8.886;2024-03-07T15:12:52;13.02;;;6.55;;
34405;SDS011;20658;45.630;8.886;2024-03-07T15:15:22;11.57;;;6.40;;
34405;SDS011;20658;45.630;8.886;2024-03-07T15:17:59;11.30;;;6.43;;
34405;SDS011;20658;45.630;8.886;2024-03-07T15:20:33;12.02;;;6.72;;
34405;SDS011;20658;45.630;8.886;2024-03-07T15:23:01;10.57;;;5.40;;
34405;SDS011;20658;45.630;8.886;2024-03-07T15:25:37;10.95;;;5.50;;
34405;SDS011;20658;45.630;8.886;2024-03-07T15:28:12;10.13;;;5.95;;